Wetterdaten: Woche 26.09.16 - 02.10.16 (KW39)
Datum Zeit Temp. A. Temp. A. max Feuchte A. Luftdruck Regen Wind Richtung Sonnenschein ET UV Solar Taupunkt Windben
26.09.2016 00:00 9,0 C 9,0 C 91 % 1020,7 hPa 0,0 mm 0,0 km/h (0 Bft) N 0,00 h 0,000 mm 0,0 UV-I 0 W/m 7,7 C 0,1 km/h (0 Bft)
26.09.2016 01:00 9,2 C 9,2 C 88 % 1020,5 hPa 0,0 mm 0,4 km/h (0 Bft) O-SO 0,00 h 0,000 mm 0,0 UV-I 0 W/m 7,4 C 1,2 km/h (1 Bft)
26.09.2016 02:00 9,2 C 9,2 C 86 % 1020,4 hPa 0,0 mm 0,8 km/h (0 Bft) SW 0,00 h 0,000 mm 0,0 UV-I 0 W/m 6,9 C 2,1 km/h (1 Bft)
26.09.2016 03:00 8,1 C 8,2 C 87 % 1020,3 hPa 0,0 mm 0,6 km/h (0 Bft) N-NW 0,00 h 0,000 mm 0,0 UV-I 0 W/m 6,1 C 1,8 km/h (1 Bft)
26.09.2016 04:00 7,1 C 7,1 C 90 % 1020,3 hPa 0,0 mm 0,4 km/h (0 Bft) N-NW 0,00 h 0,000 mm 0,0 UV-I 0 W/m 5,5 C 1,0 km/h (0 Bft)
26.09.2016 05:00 7,2 C 7,2 C 89 % 1020,2 hPa 0,0 mm 0,2 km/h (0 Bft) O 0,00 h 0,000 mm 0,0 UV-I 0 W/m 5,4 C 0,7 km/h (0 Bft)
26.09.2016 06:00 7,1 C 7,1 C 90 % 1020,3 hPa 0,0 mm 0,0 km/h (0 Bft) N 0,00 h 0,000 mm 0,0 UV-I 0 W/m 5,6 C 0,0 km/h (0 Bft)
26.09.2016 07:00 6,8 C 6,8 C 91 % 1020,6 hPa 0,0 mm 0,0 km/h (0 Bft) N 0,00 h 0,000 mm 0,0 UV-I 16 W/m 5,4 C 0,0 km/h (0 Bft)
26.09.2016 08:00 9,1 C 9,1 C 86 % 1020,8 hPa 0,0 mm 2,6 km/h (1 Bft) S 0,00 h 0,000 mm 0,0 UV-I 37 W/m 6,8 C 4,2 km/h (1 Bft)
26.09.2016 09:00 12,1 C 12,1 C 81 % 1020,8 hPa 0,0 mm 0,5 km/h (0 Bft) S-SO 0,30 h 0,025 mm 1,3 UV-I 161 W/m 8,9 C 1,3 km/h (1 Bft)
26.09.2016 10:00 14,8 C 14,9 C 73 % 1020,6 hPa 0,0 mm 1,1 km/h (0 Bft) W-NW 0,55 h 0,077 mm 2,2 UV-I 321 W/m 10,0 C 2,1 km/h (1 Bft)
26.09.2016 11:00 16,7 C 16,8 C 67 % 1020,3 hPa 0,0 mm 2,3 km/h (1 Bft) O-NO 1,00 h 0,177 mm 3,6 UV-I 568 W/m 10,6 C 4,0 km/h (1 Bft)
26.09.2016 12:00 17,9 C 18,0 C 65 % 1020,3 hPa 0,0 mm 4,1 km/h (1 Bft) O 1,00 h 0,305 mm 4,1 UV-I 625 W/m 11,3 C 6,4 km/h (2 Bft)
26.09.2016 13:00 18,7 C 18,7 C 60 % 1020,2 hPa 0,0 mm 5,4 km/h (1 Bft) NO 1,00 h 0,356 mm 4,1 UV-I 640 W/m 10,8 C 9,0 km/h (2 Bft)
26.09.2016 14:00 19,0 C 19,0 C 61 % 1019,7 hPa 0,0 mm 5,5 km/h (1 Bft) NO 0,97 h 0,381 mm 3,6 UV-I 569 W/m 11,2 C 9,2 km/h (2 Bft)
26.09.2016 15:00 19,2 C 19,2 C 59 % 1019,4 hPa 0,0 mm 5,8 km/h (2 Bft) NO 1,00 h 0,330 mm 2,6 UV-I 479 W/m 10,9 C 9,3 km/h (2 Bft)
26.09.2016 16:00 18,7 C 18,8 C 59 % 1019,2 hPa 0,0 mm 5,1 km/h (1 Bft) NO 0,43 h 0,305 mm 1,6 UV-I 187 W/m 10,5 C 8,7 km/h (2 Bft)
26.09.2016 17:00 17,9 C 17,9 C 64 % 1019,0 hPa 0,0 mm 4,0 km/h (1 Bft) O-NO 0,00 h 0,127 mm 0,9 UV-I 37 W/m 11,0 C 6,8 km/h (2 Bft)
26.09.2016 18:00 16,3 C 16,3 C 73 % 1019,3 hPa 0,0 mm 2,1 km/h (1 Bft) S-SO 0,00 h 0,051 mm 0,0 UV-I 18 W/m 11,3 C 3,7 km/h (1 Bft)
26.09.2016 19:00 13,3 C 13,4 C 83 % 1019,5 hPa 0,0 mm 1,3 km/h (1 Bft) S-SO 0,00 h 0,025 mm 0,0 UV-I 0 W/m 10,5 C 2,3 km/h (1 Bft)
26.09.2016 20:00 11,4 C 11,5 C 89 % 1020,2 hPa 0,0 mm 0,1 km/h (0 Bft) S-SO 0,00 h 0,000 mm 0,0 UV-I 0 W/m 9,7 C 0,4 km/h (0 Bft)
26.09.2016 21:00 10,6 C 10,6 C 91 % 1020,7 hPa 0,0 mm 1,8 km/h (1 Bft) S 0,00 h 0,000 mm 0,0 UV-I 0 W/m 9,2 C 2,6 km/h (1 Bft)
26.09.2016 22:00 10,2 C 10,2 C 92 % 1020,8 hPa 0,0 mm 0,7 km/h (0 Bft) S 0,00 h 0,000 mm 0,0 UV-I 0 W/m 8,9 C 1,2 km/h (1 Bft)
26.09.2016 23:00 9,0 C 9,1 C 94 % 1020,8 hPa 0,0 mm 0,0 km/h (0 Bft) N 0,00 h 0,000 mm 0,0 UV-I 0 W/m 8,1 C 0,0 km/h (0 Bft)
27.09.2016 00:00 8,5 C 8,5 C 95 % 1021,0 hPa 0,0 mm 0,0 km/h (0 Bft) N 0,00 h 0,000 mm 0,0 UV-I 0 W/m 7,7 C 0,1 km/h (0 Bft)
27.09.2016 01:00 8,1 C 8,1 C 95 % 1020,8 hPa 0,0 mm 0,2 km/h (0 Bft) S 0,00 h 0,000 mm 0,0 UV-I 0 W/m 7,4 C 0,4 km/h (0 Bft)
27.09.2016 02:00 7,7 C 7,7 C 96 % 1020,8 hPa 0,0 mm 0,1 km/h (0 Bft) S 0,00 h 0,000 mm 0,0 UV-I 0 W/m 7,0 C 0,3 km/h (0 Bft)
27.09.2016 03:00 7,2 C 7,2 C 96 % 1020,9 hPa 0,0 mm 0,0 km/h (0 Bft) N 0,00 h 0,000 mm 0,0 UV-I 0 W/m 6,6 C 0,0 km/h (0 Bft)
27.09.2016 04:00 8,4 C 8,4 C 96 % 1021,2 hPa 0,0 mm 1,0 km/h (0 Bft) S-SO 0,00 h 0,000 mm 0,0 UV-I 0 W/m 7,8 C 1,8 km/h (1 Bft)
27.09.2016 05:00 8,1 C 8,1 C 95 % 1021,2 hPa 0,0 mm 0,5 km/h (0 Bft) S-SO 0,00 h 0,000 mm 0,0 UV-I 0 W/m 7,3 C 1,2 km/h (1 Bft)
27.09.2016 06:00 8,3 C 8,3 C 95 % 1022,0 hPa 0,0 mm 0,5 km/h (0 Bft) SO 0,00 h 0,000 mm 0,0 UV-I 0 W/m 7,5 C 1,1 km/h (1 Bft)
27.09.2016 07:00 9,8 C 9,8 C 95 % 1023,0 hPa 0,0 mm 3,9 km/h (1 Bft) W-SW 0,22 h 0,000 mm 0,0 UV-I 26 W/m 9,0 C 6,7 km/h (2 Bft)
27.09.2016 08:00 12,4 C 12,4 C 89 % 1023,4 hPa 0,0 mm 3,7 km/h (1 Bft) W-SW 0,00 h 0,025 mm 0,7 UV-I 80 W/m 10,6 C 6,7 km/h (2 Bft)
27.09.2016 09:00 13,8 C 13,8 C 82 % 1023,5 hPa 0,0 mm 1,7 km/h (1 Bft) S 0,27 h 0,051 mm 1,3 UV-I 188 W/m 10,8 C 3,5 km/h (1 Bft)
27.09.2016 10:00 14,9 C 14,9 C 74 % 1023,7 hPa 0,0 mm 1,6 km/h (1 Bft) O 0,60 h 0,102 mm 2,2 UV-I 318 W/m 10,2 C 2,8 km/h (1 Bft)
27.09.2016 11:00 15,7 C 15,7 C 73 % 1024,2 hPa 0,0 mm 5,4 km/h (1 Bft) W-NW 0,30 h 0,178 mm 1,9 UV-I 285 W/m 10,9 C 8,8 km/h (2 Bft)
27.09.2016 12:00 15,9 C 16,0 C 73 % 1024,7 hPa 0,0 mm 6,1 km/h (2 Bft) W-NW 0,50 h 0,152 mm 3,1 UV-I 440 W/m 11,1 C 9,9 km/h (2 Bft)
27.09.2016 13:00 16,1 C 16,1 C 72 % 1024,8 hPa 0,0 mm 4,6 km/h (1 Bft) NW 0,15 h 0,254 mm 2,5 UV-I 258 W/m 11,1 C 7,3 km/h (2 Bft)
27.09.2016 14:00 16,7 C 16,7 C 75 % 1024,8 hPa 0,0 mm 4,0 km/h (1 Bft) N-NO 0,58 h 0,152 mm 2,8 UV-I 473 W/m 12,1 C 6,8 km/h (2 Bft)
27.09.2016 15:00 16,0 C 16,1 C 80 % 1025,0 hPa 0,0 mm 3,6 km/h (1 Bft) O-NO 0,33 h 0,254 mm 1,8 UV-I 247 W/m 12,5 C 5,6 km/h (1 Bft)
27.09.2016 16:00 16,1 C 16,1 C 80 % 1025,0 hPa 0,0 mm 1,9 km/h (1 Bft) O 0,32 h 0,153 mm 1,1 UV-I 187 W/m 12,8 C 3,5 km/h (1 Bft)
27.09.2016 17:00 15,3 C 15,4 C 83 % 1025,4 hPa 0,0 mm 1,8 km/h (1 Bft) NO 0,00 h 0,101 mm 0,6 UV-I 45 W/m 12,4 C 3,0 km/h (1 Bft)
27.09.2016 18:00 13,9 C 13,9 C 88 % 1026,1 hPa 0,0 mm 0,2 km/h (0 Bft) O 0,00 h 0,026 mm 0,0 UV-I 20 W/m 11,9 C 0,5 km/h (0 Bft)
27.09.2016 19:00 12,7 C 12,8 C 90 % 1026,7 hPa 0,0 mm 0,0 km/h (0 Bft) N 0,00 h 0,000 mm 0,0 UV-I 5 W/m 11,2 C 0,0 km/h (0 Bft)
27.09.2016 20:00 11,3 C 11,3 C 92 % 1027,4 hPa 0,0 mm 0,9 km/h (0 Bft) S-SO 0,00 h 0,000 mm 0,0 UV-I 0 W/m 10,0 C 1,7 km/h (1 Bft)
27.09.2016 21:00 10,3 C 10,3 C 93 % 1027,9 hPa 0,0 mm 0,5 km/h (0 Bft) S 0,00 h 0,000 mm 0,0 UV-I 0 W/m 9,2 C 1,3 km/h (1 Bft)
27.09.2016 22:00 9,5 C 9,6 C 94 % 1028,0 hPa 0,0 mm 0,0 km/h (0 Bft) N 0,00 h 0,000 mm 0,0 UV-I 0 W/m 8,6 C 0,1 km/h (0 Bft)
27.09.2016 23:00 9,0 C 9,0 C 95 % 1027,9 hPa 0,0 mm 0,0 km/h (0 Bft) N 0,00 h 0,000 mm 0,0 UV-I 0 W/m 8,3 C 0,0 km/h (0 Bft)
28.09.2016 00:00 8,2 C 8,2 C 96 % 1027,6 hPa 0,0 mm 0,0 km/h (0 Bft) N 0,00 h 0,000 mm 0,0 UV-I 0 W/m 7,6 C 0,0 km/h (0 Bft)
28.09.2016 01:00 8,5 C 8,6 C 96 % 1027,6 hPa 0,0 mm 1,6 km/h (1 Bft) S 0,00 h 0,000 mm 0,0 UV-I 0 W/m 7,9 C 2,6 km/h (1 Bft)
28.09.2016 02:00 8,6 C 8,6 C 95 % 1027,8 hPa 0,0 mm 1,7 km/h (1 Bft) S 0,00 h 0,000 mm 0,0 UV-I 0 W/m 7,8 C 2,9 km/h (1 Bft)
28.09.2016 03:00 8,1 C 8,1 C 96 % 1027,9 hPa 0,0 mm 1,2 km/h (1 Bft) S-SO 0,00 h 0,000 mm 0,0 UV-I 0 W/m 7,4 C 2,4 km/h (1 Bft)
28.09.2016 04:00 8,4 C 8,5 C 95 % 1028,0 hPa 0,0 mm 1,9 km/h (1 Bft) S-SO 0,00 h 0,000 mm 0,0 UV-I 0 W/m 7,6 C 3,4 km/h (1 Bft)
28.09.2016 05:00 7,6 C 7,7 C 95 % 1028,0 hPa 0,0 mm 0,0 km/h (0 Bft) N 0,00 h 0,000 mm 0,0 UV-I 0 W/m 6,9 C 0,1 km/h (0 Bft)
28.09.2016 06:00 6,9 C 7,0 C 96 % 1028,2 hPa 0,0 mm 0,0 km/h (0 Bft) N 0,00 h 0,000 mm 0,0 UV-I 0 W/m 6,3 C 0,0 km/h (0 Bft)
28.09.2016 07:00 6,8 C 6,8 C 96 % 1028,3 hPa 0,0 mm 0,0 km/h (0 Bft) N 0,00 h 0,000 mm 0,0 UV-I 12 W/m 6,2 C 0,0 km/h (0 Bft)
28.09.2016 08:00 7,9 C 7,9 C 97 % 1028,8 hPa 0,0 mm 0,0 km/h (0 Bft) N 0,00 h 0,000 mm 0,0 UV-I 27 W/m 7,4 C 0,0 km/h (0 Bft)
28.09.2016 09:00 11,3 C 11,3 C 93 % 1029,3 hPa 0,0 mm 0,0 km/h (0 Bft) N 0,18 h 0,000 mm 1,2 UV-I 122 W/m 10,1 C 0,0 km/h (0 Bft)
28.09.2016 10:00 14,7 C 14,7 C 82 % 1029,5 hPa 0,0 mm 2,9 km/h (1 Bft) W 0,52 h 0,051 mm 1,9 UV-I 280 W/m 11,5 C 4,7 km/h (1 Bft)
28.09.2016 11:00 16,7 C 16,7 C 72 % 1029,5 hPa 0,0 mm 8,1 km/h (2 Bft) W-NW 0,95 h 0,152 mm 3,4 UV-I 531 W/m 11,6 C 12,8 km/h (3 Bft)
28.09.2016 12:00 17,7 C 17,7 C 70 % 1029,0 hPa 0,0 mm 8,4 km/h (2 Bft) W-NW 1,00 h 0,330 mm 4,1 UV-I 610 W/m 12,0 C 13,2 km/h (3 Bft)
28.09.2016 13:00 18,7 C 18,7 C 64 % 1028,6 hPa 0,0 mm 9,0 km/h (2 Bft) W-NW 1,00 h 0,356 mm 4,2 UV-I 632 W/m 11,7 C 13,9 km/h (3 Bft)
28.09.2016 14:00 19,1 C 19,1 C 61 % 1027,8 hPa 0,0 mm 9,5 km/h (2 Bft) W-NW 1,00 h 0,406 mm 3,4 UV-I 484 W/m 11,4 C 14,2 km/h (3 Bft)
28.09.2016 15:00 19,2 C 19,2 C 61 % 1027,5 hPa 0,0 mm 8,1 km/h (2 Bft) W 1,00 h 0,331 mm 2,5 UV-I 415 W/m 11,5 C 13,1 km/h (3 Bft)
28.09.2016 16:00 18,6 C 18,6 C 62 % 1027,4 hPa 0,0 mm 6,9 km/h (2 Bft) W 0,27 h 0,279 mm 1,4 UV-I 193 W/m 11,2 C 11,3 km/h (2 Bft)
28.09.2016 17:00 17,4 C 17,5 C 69 % 1027,5 hPa 0,0 mm 5,1 km/h (1 Bft) W 0,00 h 0,152 mm 0,7 UV-I 71 W/m 11,7 C 8,1 km/h (2 Bft)
28.09.2016 18:00 16,2 C 16,2 C 72 % 1027,8 hPa 0,0 mm 2,6 km/h (1 Bft) S 0,00 h 0,077 mm 0,0 UV-I 24 W/m 11,2 C 4,2 km/h (1 Bft)
28.09.2016 19:00 15,3 C 15,3 C 76 % 1028,0 hPa 0,0 mm 2,4 km/h (1 Bft) S-SW 0,00 h 0,025 mm 0,0 UV-I 5 W/m 11,1 C 4,2 km/h (1 Bft)
28.09.2016 20:00 13,2 C 13,2 C 84 % 1028,2 hPa 0,0 mm 2,8 km/h (1 Bft) S 0,00 h 0,000 mm 0,0 UV-I 0 W/m 10,5 C 4,5 km/h (1 Bft)
28.09.2016 21:00 11,5 C 11,6 C 88 % 1028,5 hPa 0,0 mm 2,4 km/h (1 Bft) S 0,00 h 0,025 mm 0,0 UV-I 0 W/m 9,7 C 3,8 km/h (1 Bft)
28.09.2016 22:00 10,5 C 10,5 C 90 % 1028,6 hPa 0,0 mm 1,5 km/h (1 Bft) S-SO 0,00 h 0,000 mm 0,0 UV-I 0 W/m 8,9 C 2,1 km/h (1 Bft)
28.09.2016 23:00 10,4 C 10,5 C 88 % 1028,5 hPa 0,0 mm 1,4 km/h (1 Bft) S-SO 0,00 h 0,000 mm 0,0 UV-I 0 W/m 8,6 C 2,4 km/h (1 Bft)
29.09.2016 00:00 9,4 C 9,5 C 89 % 1028,3 hPa 0,0 mm 0,1 km/h (0 Bft) N 0,00 h 0,000 mm 0,0 UV-I 0 W/m 7,8 C 0,2 km/h (0 Bft)
29.09.2016 01:00 9,3 C 9,3 C 88 % 1027,9 hPa 0,0 mm 0,2 km/h (0 Bft) W-SW 0,00 h 0,000 mm 0,0 UV-I 0 W/m 7,4 C 0,7 km/h (0 Bft)
29.09.2016 02:00 8,6 C 8,7 C 89 % 1027,3 hPa 0,0 mm 0,0 km/h (0 Bft) N 0,00 h 0,000 mm 0,0 UV-I 0 W/m 6,8 C 0,0 km/h (0 Bft)
29.09.2016 03:00 8,3 C 8,3 C 89 % 1026,7 hPa 0,0 mm 0,0 km/h (0 Bft) N 0,00 h 0,000 mm 0,0 UV-I 0 W/m 6,7 C 0,0 km/h (0 Bft)
29.09.2016 04:00 8,6 C 8,7 C 88 % 1026,1 hPa 0,0 mm 0,0 km/h (0 Bft) N 0,00 h 0,000 mm 0,0 UV-I 0 W/m 6,7 C 0,0 km/h (0 Bft)
29.09.2016 05:00 8,2 C 8,2 C 88 % 1025,8 hPa 0,0 mm 0,0 km/h (0 Bft) N 0,00 h 0,000 mm 0,0 UV-I 0 W/m 6,3 C 0,0 km/h (0 Bft)
29.09.2016 06:00 8,2 C 8,2 C 87 % 1025,4 hPa 0,0 mm 0,0 km/h (0 Bft) N 0,00 h 0,000 mm 0,0 UV-I 0 W/m 6,2 C 0,0 km/h (0 Bft)
29.09.2016 07:00 8,4 C 8,4 C 86 % 1025,0 hPa 0,0 mm 0,5 km/h (0 Bft) NW 0,00 h 0,000 mm 0,0 UV-I 11 W/m 6,1 C 1,6 km/h (1 Bft)
29.09.2016 08:00 9,4 C 9,4 C 84 % 1025,0 hPa 0,0 mm 0,4 km/h (0 Bft) NW 0,00 h 0,000 mm 0,0 UV-I 27 W/m 6,8 C 1,4 km/h (1 Bft)
29.09.2016 09:00 12,6 C 12,6 C 75 % 1024,9 hPa 0,0 mm 0,5 km/h (0 Bft) NW 0,08 h 0,025 mm 1,5 UV-I 85 W/m 8,2 C 1,6 km/h (1 Bft)
29.09.2016 10:00 15,9 C 15,9 C 65 % 1024,5 hPa 0,0 mm 0,6 km/h (0 Bft) W-SW 0,43 h 0,051 mm 2,2 UV-I 275 W/m 9,2 C 1,5 km/h (1 Bft)
29.09.2016 11:00 18,6 C 18,6 C 57 % 1023,7 hPa 0,0 mm 3,8 km/h (1 Bft) W-NW 1,00 h 0,153 mm 3,7 UV-I 569 W/m 9,8 C 6,6 km/h (2 Bft)
29.09.2016 12:00 20,0 C 20,0 C 54 % 1022,9 hPa 0,0 mm 6,5 km/h (2 Bft) W-NW 1,00 h 0,355 mm 4,3 UV-I 618 W/m 10,3 C 10,1 km/h (2 Bft)
29.09.2016 13:00 20,6 C 20,7 C 55 % 1022,0 hPa 0,0 mm 5,4 km/h (1 Bft) W 0,95 h 0,407 mm 4,3 UV-I 601 W/m 11,3 C 8,9 km/h (2 Bft)
29.09.2016 14:00 21,0 C 21,0 C 56 % 1020,9 hPa 0,0 mm 7,9 km/h (2 Bft) W 1,00 h 0,381 mm 3,8 UV-I 566 W/m 12,0 C 12,3 km/h (3 Bft)
29.09.2016 15:00 20,9 C 20,9 C 53 % 1020,1 hPa 0,0 mm 8,9 km/h (2 Bft) W 0,95 h 0,381 mm 2,7 UV-I 460 W/m 10,9 C 14,3 km/h (3 Bft)
29.09.2016 16:00 20,3 C 20,3 C 53 % 1019,6 hPa 0,0 mm 8,2 km/h (2 Bft) W 0,27 h 0,330 mm 1,7 UV-I 134 W/m 10,3 C 13,0 km/h (3 Bft)
29.09.2016 17:00 19,2 C 19,2 C 57 % 1019,2 hPa 0,0 mm 5,6 km/h (1 Bft) W 0,00 h 0,127 mm 0,0 UV-I 26 W/m 10,4 C 9,5 km/h (2 Bft)
29.09.2016 18:00 18,2 C 18,3 C 56 % 1019,1 hPa 0,0 mm 2,2 km/h (1 Bft) S 0,00 h 0,051 mm 0,0 UV-I 15 W/m 9,4 C 4,1 km/h (1 Bft)
29.09.2016 19:00 17,1 C 17,2 C 57 % 1019,1 hPa 0,0 mm 3,8 km/h (1 Bft) S 0,00 h 0,025 mm 0,0 UV-I 0 W/m 8,6 C 7,0 km/h (2 Bft)
29.09.2016 20:00 14,7 C 14,8 C 70 % 1019,1 hPa 0,0 mm 3,6 km/h (1 Bft) S 0,00 h 0,025 mm 0,0 UV-I 0 W/m 9,2 C 6,2 km/h (2 Bft)
29.09.2016 21:00 13,6 C 13,7 C 76 % 1018,9 hPa 0,0 mm 1,9 km/h (1 Bft) S-SO 0,00 h 0,026 mm 0,0 UV-I 0 W/m 9,4 C 3,4 km/h (1 Bft)
29.09.2016 22:00 11,5 C 11,6 C 84 % 1018,9 hPa 0,0 mm 0,7 km/h (0 Bft) S-SO 0,00 h 0,025 mm 0,0 UV-I 0 W/m 8,9 C 1,6 km/h (1 Bft)
29.09.2016 23:00 11,7 C 11,8 C 84 % 1018,8 hPa 0,0 mm 0,6 km/h (0 Bft) S-SO 0,00 h 0,000 mm 0,0 UV-I 0 W/m 9,2 C 1,8 km/h (1 Bft)
30.09.2016 00:00 11,5 C 11,5 C 83 % 1018,6 hPa 0,0 mm 0,9 km/h (0 Bft) S 0,00 h 0,000 mm 0,0 UV-I 0 W/m 8,7 C 1,9 km/h (1 Bft)
30.09.2016 01:00 10,5 C 10,5 C 85 % 1018,4 hPa 0,0 mm 1,9 km/h (1 Bft) S-SO 0,00 h 0,025 mm 0,0 UV-I 0 W/m 8,1 C 3,1 km/h (1 Bft)
30.09.2016 02:00 11,0 C 11,1 C 81 % 1018,3 hPa 0,0 mm 2,5 km/h (1 Bft) S 0,00 h 0,026 mm 0,0 UV-I 0 W/m 7,9 C 4,0 km/h (1 Bft)
30.09.2016 03:00 8,9 C 8,9 C 89 % 1018,1 hPa 0,0 mm 0,3 km/h (0 Bft) S-SO 0,00 h 0,025 mm 0,0 UV-I 0 W/m 7,1 C 0,7 km/h (0 Bft)
30.09.2016 04:00 8,7 C 8,8 C 88 % 1017,5 hPa 0,0 mm 0,5 km/h (0 Bft) S 0,00 h 0,000 mm 0,0 UV-I 0 W/m 6,9 C 1,3 km/h (1 Bft)
30.09.2016 05:00 8,1 C 8,1 C 90 % 1017,2 hPa 0,0 mm 0,8 km/h (0 Bft) S-SO 0,00 h 0,000 mm 0,0 UV-I 0 W/m 6,5 C 1,6 km/h (1 Bft)
30.09.2016 06:00 7,5 C 7,5 C 92 % 1016,9 hPa 0,0 mm 0,2 km/h (0 Bft) S-SW 0,00 h 0,000 mm 0,0 UV-I 0 W/m 6,2 C 0,7 km/h (0 Bft)
30.09.2016 07:00 9,5 C 9,6 C 86 % 1016,9 hPa 0,0 mm 1,7 km/h (1 Bft) S 0,00 h 0,000 mm 0,0 UV-I 11 W/m 7,2 C 3,6 km/h (1 Bft)
30.09.2016 08:00 11,5 C 11,5 C 80 % 1016,9 hPa 0,0 mm 1,7 km/h (1 Bft) S-SW 0,00 h 0,000 mm 0,0 UV-I 23 W/m 8,2 C 3,4 km/h (1 Bft)
30.09.2016 09:00 13,6 C 13,6 C 76 % 1017,1 hPa 0,0 mm 1,8 km/h (1 Bft) S 0,03 h 0,026 mm 1,4 UV-I 73 W/m 9,4 C 3,1 km/h (1 Bft)
30.09.2016 10:00 17,0 C 17,0 C 63 % 1017,0 hPa 0,0 mm 5,7 km/h (1 Bft) W-SW 0,48 h 0,050 mm 2,1 UV-I 270 W/m 9,9 C 9,1 km/h (2 Bft)
30.09.2016 11:00 19,1 C 19,1 C 56 % 1016,7 hPa 0,0 mm 8,2 km/h (2 Bft) W-NW 1,00 h 0,178 mm 3,6 UV-I 563 W/m 10,0 C 13,3 km/h (3 Bft)
30.09.2016 12:00 20,0 C 20,0 C 52 % 1016,2 hPa 0,0 mm 8,6 km/h (2 Bft) W-NW 1,00 h 0,381 mm 4,1 UV-I 613 W/m 9,8 C 13,0 km/h (3 Bft)
30.09.2016 13:00 20,6 C 20,6 C 46 % 1015,7 hPa 0,0 mm 8,0 km/h (2 Bft) W-NW 1,00 h 0,407 mm 4,2 UV-I 615 W/m 8,4 C 13,2 km/h (3 Bft)
30.09.2016 14:00 20,7 C 20,7 C 41 % 1015,1 hPa 0,0 mm 7,3 km/h (2 Bft) W-NW 1,00 h 0,431 mm 3,7 UV-I 570 W/m 7,0 C 11,7 km/h (2 Bft)
30.09.2016 15:00 20,5 C 20,5 C 44 % 1014,8 hPa 0,0 mm 6,0 km/h (2 Bft) W 1,00 h 0,407 mm 2,6 UV-I 471 W/m 7,8 C 9,6 km/h (2 Bft)
30.09.2016 16:00 19,9 C 19,9 C 47 % 1014,7 hPa 0,0 mm 6,7 km/h (2 Bft) W-NW 0,25 h 0,330 mm 1,7 UV-I 130 W/m 8,2 C 11,3 km/h (2 Bft)
30.09.2016 17:00 18,3 C 18,4 C 54 % 1014,7 hPa 0,0 mm 3,2 km/h (1 Bft) SW 0,00 h 0,127 mm 0,8 UV-I 33 W/m 8,8 C 5,3 km/h (1 Bft)
30.09.2016 18:00 16,6 C 16,7 C 60 % 1014,8 hPa 0,0 mm 2,1 km/h (1 Bft) S-SW 0,00 h 0,051 mm 0,0 UV-I 14 W/m 8,7 C 3,7 km/h (1 Bft)
30.09.2016 19:00 13,3 C 13,4 C 71 % 1014,9 hPa 0,0 mm 3,4 km/h (1 Bft) S 0,00 h 0,025 mm 0,0 UV-I 0 W/m 8,1 C 5,2 km/h (1 Bft)
30.09.2016 20:00 11,5 C 11,5 C 79 % 1015,1 hPa 0,0 mm 0,6 km/h (0 Bft) S 0,00 h 0,026 mm 0,0 UV-I 0 W/m 7,9 C 1,4 km/h (1 Bft)
30.09.2016 21:00 11,2 C 11,2 C 81 % 1015,2 hPa 0,0 mm 0,1 km/h (0 Bft) S 0,00 h 0,025 mm 0,0 UV-I 0 W/m 8,2 C 0,2 km/h (0 Bft)
30.09.2016 22:00 12,2 C 12,2 C 77 % 1014,9 hPa 0,0 mm 0,3 km/h (0 Bft) SO 0,00 h 0,025 mm 0,0 UV-I 0 W/m 8,2 C 1,1 km/h (1 Bft)
30.09.2016 23:00 11,9 C 11,9 C 77 % 1014,5 hPa 0,0 mm 0,2 km/h (0 Bft) S-SO 0,00 h 0,026 mm 0,0 UV-I 0 W/m 8,0 C 0,7 km/h (0 Bft)
01.10.2016 00:00 10,5 C 10,5 C 82 % 1013,8 hPa 0,0 mm 0,1 km/h (0 Bft) N 0,00 h 0,000 mm 0,0 UV-I 0 W/m 7,5 C 0,5 km/h (0 Bft)
01.10.2016 01:00 10,1 C 10,1 C 82 % 1013,2 hPa 0,0 mm 0,0 km/h (0 Bft) N 0,00 h 0,000 mm 0,0 UV-I 0 W/m 7,2 C 0,2 km/h (0 Bft)
01.10.2016 02:00 10,9 C 11,0 C 77 % 1012,5 hPa 0,0 mm 0,2 km/h (0 Bft) NW 0,00 h 0,000 mm 0,0 UV-I 0 W/m 7,2 C 0,7 km/h (0 Bft)
01.10.2016 03:00 10,9 C 10,9 C 77 % 1011,9 hPa 0,0 mm 0,9 km/h (0 Bft) W 0,00 h 0,025 mm 0,0 UV-I 0 W/m 7,0 C 2,2 km/h (1 Bft)
01.10.2016 04:00 8,8 C 8,8 C 85 % 1011,7 hPa 0,0 mm 0,4 km/h (0 Bft) S 0,00 h 0,026 mm 0,0 UV-I 0 W/m 6,5 C 0,9 km/h (0 Bft)
01.10.2016 05:00 7,9 C 8,0 C 89 % 1011,5 hPa 0,0 mm 0,2 km/h (0 Bft) S 0,00 h 0,000 mm 0,0 UV-I 0 W/m 6,2 C 0,7 km/h (0 Bft)
01.10.2016 06:00 7,5 C 7,5 C 91 % 1011,4 hPa 0,0 mm 0,5 km/h (0 Bft) S 0,00 h 0,000 mm 0,0 UV-I 0 W/m 6,1 C 1,1 km/h (1 Bft)
01.10.2016 07:00 7,6 C 7,6 C 91 % 1011,3 hPa 0,0 mm 0,3 km/h (0 Bft) S 0,00 h 0,000 mm 0,0 UV-I 17 W/m 6,3 C 0,7 km/h (0 Bft)
01.10.2016 08:00 10,0 C 10,0 C 87 % 1011,3 hPa 0,0 mm 0,2 km/h (0 Bft) W-SW 0,00 h 0,000 mm 0,6 UV-I 65 W/m 7,9 C 0,6 km/h (0 Bft)
01.10.2016 09:00 12,7 C 12,7 C 79 % 1011,4 hPa 0,0 mm 0,0 km/h (0 Bft) N 0,00 h 0,025 mm 1,0 UV-I 114 W/m 9,2 C 0,0 km/h (0 Bft)
01.10.2016 10:00 15,5 C 15,5 C 76 % 1011,6 hPa 0,0 mm 0,9 km/h (0 Bft) NW 0,02 h 0,051 mm 1,6 UV-I 210 W/m 11,3 C 1,9 km/h (1 Bft)
01.10.2016 11:00 16,9 C 16,9 C 68 % 1011,6 hPa 0,0 mm 2,7 km/h (1 Bft) NW 0,30 h 0,127 mm 2,3 UV-I 302 W/m 11,0 C 5,2 km/h (1 Bft)
01.10.2016 12:00 17,8 C 17,8 C 64 % 1011,5 hPa 0,0 mm 4,3 km/h (1 Bft) W-NW 0,20 h 0,178 mm 2,4 UV-I 311 W/m 10,9 C 6,8 km/h (2 Bft)
01.10.2016 13:00 18,0 C 18,0 C 65 % 1011,0 hPa 0,0 mm 2,0 km/h (1 Bft) W-NW 0,23 h 0,203 mm 2,6 UV-I 323 W/m 11,3 C 3,4 km/h (1 Bft)
01.10.2016 14:00 18,5 C 18,6 C 63 % 1010,4 hPa 0,0 mm 3,0 km/h (1 Bft) W-NW 0,65 h 0,203 mm 2,7 UV-I 382 W/m 11,4 C 4,8 km/h (1 Bft)
01.10.2016 15:00 18,6 C 18,6 C 64 % 1009,8 hPa 0,0 mm 2,8 km/h (1 Bft) O-NO 0,43 h 0,229 mm 1,9 UV-I 265 W/m 11,7 C 4,6 km/h (1 Bft)
01.10.2016 16:00 17,5 C 17,5 C 71 % 1009,9 hPa 0,0 mm 0,7 km/h (0 Bft) O-NO 0,00 h 0,152 mm 0,9 UV-I 110 W/m 12,1 C 1,9 km/h (1 Bft)
01.10.2016 17:00 16,5 C 16,5 C 78 % 1010,4 hPa 0,0 mm 1,0 km/h (0 Bft) O-NO 0,00 h 0,076 mm 0,0 UV-I 48 W/m 12,7 C 2,1 km/h (1 Bft)
01.10.2016 18:00 16,0 C 16,0 C 76 % 1011,0 hPa 0,0 mm 4,6 km/h (1 Bft) W-SW 0,00 h 0,026 mm 0,0 UV-I 18 W/m 11,8 C 7,8 km/h (2 Bft)
01.10.2016 19:00 14,7 C 14,7 C 81 % 1011,9 hPa 0,0 mm 3,5 km/h (1 Bft) W-SW 0,00 h 0,025 mm 0,0 UV-I 0 W/m 11,5 C 6,0 km/h (2 Bft)
01.10.2016 20:00 13,7 C 13,7 C 84 % 1012,2 hPa 0,0 mm 2,0 km/h (1 Bft) S 0,00 h 0,000 mm 0,0 UV-I 0 W/m 11,1 C 3,3 km/h (1 Bft)
01.10.2016 21:00 12,9 C 12,9 C 87 % 1012,4 hPa 0,0 mm 1,4 km/h (1 Bft) S-SW 0,00 h 0,026 mm 0,0 UV-I 0 W/m 10,8 C 2,6 km/h (1 Bft)
01.10.2016 22:00 13,3 C 13,4 C 82 % 1012,8 hPa 0,0 mm 6,9 km/h (2 Bft) W 0,00 h 0,000 mm 0,0 UV-I 0 W/m 10,3 C 11,2 km/h (2 Bft)
01.10.2016 23:00 13,3 C 13,3 C 81 % 1013,1 hPa 0,0 mm 5,6 km/h (1 Bft) W-SW 0,00 h 0,025 mm 0,0 UV-I 0 W/m 10,0 C 9,9 km/h (2 Bft)
02.10.2016 00:00 13,1 C 13,1 C 81 % 1013,3 hPa 0,0 mm 4,1 km/h (1 Bft) W-SW 0,00 h 0,000 mm 0,0 UV-I 0 W/m 9,9 C 6,9 km/h (2 Bft)
02.10.2016 01:00 12,7 C 12,7 C 83 % 1013,3 hPa 0,0 mm 1,9 km/h (1 Bft) SW 0,00 h 0,025 mm 0,0 UV-I 0 W/m 9,9 C 3,6 km/h (1 Bft)
02.10.2016 02:00 12,4 C 12,4 C 83 % 1013,0 hPa 0,0 mm 1,8 km/h (1 Bft) S-SO 0,00 h 0,026 mm 0,0 UV-I 0 W/m 9,6 C 3,7 km/h (1 Bft)
02.10.2016 03:00 12,1 C 12,2 C 84 % 1012,7 hPa 0,0 mm 0,9 km/h (0 Bft) S 0,00 h 0,025 mm 0,0 UV-I 0 W/m 9,4 C 1,5 km/h (1 Bft)
02.10.2016 04:00 11,8 C 11,9 C 87 % 1012,3 hPa 0,0 mm 1,0 km/h (0 Bft) S-SO 0,00 h 0,026 mm 0,0 UV-I 0 W/m 9,8 C 1,9 km/h (1 Bft)
02.10.2016 05:00 11,7 C 11,7 C 87 % 1012,4 hPa 0,0 mm 1,1 km/h (1 Bft) SO 0,00 h 0,000 mm 0,0 UV-I 0 W/m 9,7 C 2,1 km/h (1 Bft)
02.10.2016 06:00 11,1 C 11,1 C 92 % 1012,5 hPa 0,4 mm 0,2 km/h (0 Bft) SO 0,00 h 0,000 mm 0,0 UV-I 0 W/m 9,7 C 0,5 km/h (0 Bft)
02.10.2016 07:00 10,6 C 10,6 C 94 % 1012,7 hPa 0,2 mm 0,4 km/h (0 Bft) O-NO 0,00 h 0,000 mm 0,0 UV-I 5 W/m 9,6 C 1,0 km/h (0 Bft)
02.10.2016 08:00 10,6 C 10,6 C 94 % 1012,8 hPa 0,6 mm 0,3 km/h (0 Bft) O-NO 0,00 h 0,000 mm 0,0 UV-I 29 W/m 9,7 C 0,9 km/h (0 Bft)
02.10.2016 09:00 11,0 C 11,0 C 94 % 1013,2 hPa 1,0 mm 0,0 km/h (0 Bft) N 0,00 h 0,025 mm 0,5 UV-I 52 W/m 10,0 C 0,0 km/h (0 Bft)
02.10.2016 10:00 11,2 C 11,2 C 94 % 1013,4 hPa 0,4 mm 0,0 km/h (0 Bft) N 0,00 h 0,025 mm 0,6 UV-I 60 W/m 10,2 C 0,0 km/h (0 Bft)
02.10.2016 11:00 11,5 C 11,5 C 93 % 1013,7 hPa 0,8 mm 0,3 km/h (0 Bft) O-NO 0,00 h 0,026 mm 0,6 UV-I 69 W/m 10,4 C 0,7 km/h (0 Bft)
02.10.2016 12:00 11,3 C 11,3 C 93 % 1014,1 hPa 1,2 mm 4,5 km/h (1 Bft) W-NW 0,00 h 0,025 mm 0,9 UV-I 89 W/m 10,2 C 7,2 km/h (2 Bft)
02.10.2016 13:00 10,0 C 10,1 C 93 % 1014,8 hPa 2,6 mm 6,2 km/h (2 Bft) W 0,00 h 0,051 mm 1,3 UV-I 64 W/m 9,0 C 9,8 km/h (2 Bft)
02.10.2016 14:00 11,3 C 11,4 C 91 % 1014,6 hPa 0,0 mm 5,2 km/h (1 Bft) W 0,10 h 0,025 mm 1,8 UV-I 214 W/m 9,9 C 8,4 km/h (2 Bft)
02.10.2016 15:00 11,0 C 11,0 C 91 % 1014,6 hPa 0,0 mm 2,2 km/h (1 Bft) W-SW 0,00 h 0,102 mm 0,7 UV-I 58 W/m 9,7 C 4,2 km/h (1 Bft)
02.10.2016 16:00 10,6 C 10,7 C 90 % 1015,0 hPa 0,0 mm 3,2 km/h (1 Bft) W-SW 0,00 h 0,025 mm 0,0 UV-I 32 W/m 9,1 C 5,9 km/h (2 Bft)
02.10.2016 17:00 10,0 C 10,0 C 90 % 1015,3 hPa 0,2 mm 3,1 km/h (1 Bft) SW 0,00 h 0,026 mm 0,0 UV-I 38 W/m 8,4 C 5,7 km/h (1 Bft)
02.10.2016 18:00 9,8 C 9,9 C 89 % 1015,6 hPa 0,0 mm 3,1 km/h (1 Bft) W-SW 0,00 h 0,025 mm 0,0 UV-I 19 W/m 8,1 C 5,7 km/h (1 Bft)
02.10.2016 19:00 9,5 C 9,5 C 87 % 1016,4 hPa 0,0 mm 2,5 km/h (1 Bft) W-SW 0,00 h 0,000 mm 0,0 UV-I 0 W/m 7,5 C 4,8 km/h (1 Bft)
02.10.2016 20:00 9,5 C 9,5 C 85 % 1017,3 hPa 0,0 mm 2,9 km/h (1 Bft) SW 0,00 h 0,000 mm 0,0 UV-I 0 W/m 7,1 C 5,3 km/h (1 Bft)
02.10.2016 21:00 9,5 C 9,5 C 85 % 1017,9 hPa 0,0 mm 5,6 km/h (1 Bft) W-SW 0,00 h 0,026 mm 0,0 UV-I 0 W/m 7,1 C 9,2 km/h (2 Bft)
02.10.2016 22:00 9,0 C 9,1 C 84 % 1018,8 hPa 0,0 mm 7,9 km/h (2 Bft) W-SW 0,00 h 0,025 mm 0,0 UV-I 0 W/m 6,6 C 12,9 km/h (3 Bft)
02.10.2016 23:00 8,7 C 8,7 C 83 % 1019,6 hPa 0,0 mm 6,1 km/h (2 Bft) W-SW 0,00 h 0,025 mm 0,0 UV-I 0 W/m 6,0 C 10,4 km/h (2 Bft)
Min-Datum _ 26.09.16 26.09.16 30.09.16 01.10.16 - 02.10.16 - - - - - 26.09.16 02.10.16
_ Min-Zeit 07:29 07:32 14:35 16:00 - 19:21 - - - - - 05:35 19:21
Minimum _ 6,4 C 6,4 C 37 % 1009,7 hPa - 0,0 km/h (0 Bft) - - - - - 5,1 C 0,0 km/h (0 Bft)
Max-Datum _ 29.09.16 29.09.16 28.09.16 28.09.16 02.10.16 29.09.16 - 30.09.16 30.09.16 29.09.16 27.09.16 27.09.16 01.10.16
_ Max-Zeit 14:25 14:25 09:01 11:00 13:10 14:59 - 12:04 14:01 13:00 13:12 14:35 22:23
Maximum _ 21,2 C 21,2 C 97 % 1029,7 hPa 2,6 mm 16,4 km/h
W (3 Bft)
- 0,03 h 0,431 mm 4,5 UV-I 849 W/m 13,5 C 25,7 km/h
W-SW (4 Bft)
Durchschnitt _ 12,7 C 12,7 C 80 % 1019,7 hPa #7,4 mm 2,4 km/h (1 Bft) W #28:49 h #12,674 mm 2,2 UV-I 115 W/m 9,0 C 4,1 km/h (1 Bft)